Eko 2 — SY9957 — position and weather

sailwx.info

Track history (hours):
 
Tides and Currents Weather Stations Pressure Air Temp Water Temp Dewpoint Dewpoint Depression Visibility Wind Speed Wind Dir Waves Ship Positions

Eko 2

Last reported at 2014-Aug-21 04:34 UTC. Time now 2014-Aug-21 06:22 UTC.
Position N 36°23' E 025°26'.

Length 89 m; draft 4.3 m.

Type: Ship (hazmat cat A). MMSI: 240827000.

Date/timePositionNaut miles runAvg speedWind from/ knotsBaromVisibWave heightAir tempDewpointWater temp
2014-Aug-21 04:34N 36°23' E 025°26'7 6.8
2014-Aug-21 03:34N 36°29' E 025°21'1111.0
2014-Aug-21 02:34N 36°39' E 025°15'1110.8
2014-Aug-21 01:34N 36°47' E 025°07'1110.8
2014-Aug-21 00:33N 36°55' E 024°57'10 9.7
2014-Aug-20 23:33N 37°04' E 024°57'1110.9
2014-Aug-20 22:34N 37°14' E 025°02'1110.8
2014-Aug-20 21:34N 37°24' E 025°08'8 8.1
2014-Aug-20 20:33N 37°32' E 025°09'0 0.0
2014-Aug-20 19:33N 37°32' E 025°09'0 0.0
2014-Aug-20 18:33N 37°32' E 025°09'0 0.0
2014-Aug-20 17:33N 37°32' E 025°09'9 8.6
2014-Aug-20 16:33N 37°28' E 024°60'3 3.4
2014-Aug-20 15:32N 37°26' E 024°56'0 0.0
2014-Aug-20 14:32N 37°26' E 024°56'0 0.0
2014-Aug-20 13:32N 37°26' E 024°56'0 0.0
2014-Aug-20 12:29N 37°26' E 024°56'0 0.0
2014-Aug-20 11:32N 37°26' E 024°56'0 0.0
2014-Aug-20 10:32N 37°26' E 024°56'0 0.0
2014-Aug-20 09:29N 37°26' E 024°56'0 0.0
2014-Aug-20 08:32N 37°26' E 024°56'0 0.0
2014-Aug-20 07:22N 37°26' E 024°56'4 5.1
2014-Aug-20 06:33N 37°24' E 025°01'9 9.1
2014-Aug-20 05:34N 37°17' E 024°53'1010.0
2014-Aug-20 04:33N 37°12' E 024°42'9 9.5
2014-Aug-20 03:33N 37°08' E 024°31'0 0.1
2014-Aug-20 00:18N 37°08' E 024°31'0 0.0
2014-Aug-19 23:24N 37°08' E 024°31'0 0.0
2014-Aug-19 19:30N 37°08' E 024°31'1 1.3
2014-Aug-19 18:33N 37°07' E 024°32'8 8.6
2014-Aug-19 17:33N 37°08' E 024°21'46 9.2
2014-Aug-19 12:33N 37°41' E 023°41'1110.7
2014-Aug-19 11:33N 37°51' E 023°36'11 0.7
2014-Aug-18 20:33N 38°02' E 023°33'2 1.0
2014-Aug-18 18:12N 38°02' E 023°36'0 0.0
2014-Aug-18 13:09N 38°02' E 023°36'0 0.0
2014-Aug-18 12:18N 38°02' E 023°36'1 1.0
2014-Aug-18 11:23N 38°02' E 023°34'2 1.0
2014-Aug-18 09:22N 38°02' E 023°32'0 0.1
2014-Aug-18 08:33N 38°02' E 023°32'5 5.4
2014-Aug-18 07:33N 37°57' E 023°35'8 7.6
2014-Aug-18 06:33N 37°50' E 023°39'1110.0
2014-Aug-18 05:29N 37°40' E 023°45'75 6.9
2014-Aug-17 18:33N 37°05' E 025°09'0 0.0
2014-Aug-17 17:33N 37°05' E 025°09'5 4.4
2014-Aug-17 16:31N 37°09' E 025°06'9 9.1
2014-Aug-17 15:33N 37°18' E 025°07'10 9.7
2014-Aug-17 14:33N 37°28' E 025°08'5 4.6
2014-Aug-17 13:32N 37°32' E 025°09'0 0.0
2014-Aug-17 12:32N 37°32' E 025°09'0 0.0
2014-Aug-17 11:32N 37°32' E 025°09'0 0.0
2014-Aug-17 10:32N 37°32' E 025°09'0 0.0
2014-Aug-17 09:32N 37°32' E 025°09'0 0.0
2014-Aug-17 08:32N 37°32' E 025°09'0 0.0
2014-Aug-17 07:32N 37°32' E 025°09'0 0.0
2014-Aug-17 06:32N 37°32' E 025°09'0 0.0
2014-Aug-17 05:32N 37°32' E 025°09'0 0.0
2014-Aug-17 04:32N 37°32' E 025°09'0 0.3
2014-Aug-17 03:33N 37°32' E 025°09'9 9.3
2014-Aug-17 02:33N 37°23' E 025°06'8 8.1
2014-Aug-17 01:33N 37°18' E 024°58'8 8.4
2014-Aug-17 00:33N 37°14' E 024°49'8 8.4
2014-Aug-16 23:33N 37°10' E 024°39'7 6.9
2014-Aug-16 22:33N 37°07' E 024°32'1 1.0
2014-Aug-16 21:30N 37°08' E 024°31'0 0.0
2014-Aug-16 20:30N 37°08' E 024°31'0 0.0
2014-Aug-16 19:06N 37°08' E 024°31'1 1.7
2014-Aug-16 18:33N 37°08' E 024°32'1511.5
2014-Aug-16 17:16N 37°00' E 024°48'811.7
2014-Aug-16 16:33N 36°55' E 024°56'1511.3
2014-Aug-16 15:14N 36°45' E 025°10'811.2
2014-Aug-16 14:33N 36°39' E 025°15'16 1.4
2014-Aug-16 03:33N 36°25' E 025°25'7 7.5
2014-Aug-16 02:33N 36°32' E 025°22'9 8.5
2014-Aug-16 01:33N 36°38' E 025°29'9 9.1
2014-Aug-16 00:33N 36°45' E 025°37'10 9.9
2014-Aug-15 23:34N 36°52' E 025°46'8 7.7
2014-Aug-15 22:33N 36°56' E 025°54'4 0.7
2014-Aug-15 17:13N 36°54' E 025°59'0 0.0
2014-Aug-15 15:31N 36°54' E 025°59'0 0.0
2014-Aug-15 13:31N 36°54' E 025°59'0 0.0
2014-Aug-15 11:25N 36°54' E 025°59'0 0.0
2014-Aug-15 09:31N 36°54' E 025°59'0 0.0
2014-Aug-15 08:28N 36°54' E 025°59'4 4.4
2014-Aug-15 07:34N 36°54' E 025°54'1111.1
2014-Aug-15 06:34N 36°49' E 025°42'1111.4
2014-Aug-15 05:33N 36°42' E 025°30'10 9.7
2014-Aug-15 04:33N 36°39' E 025°19'5 4.7
2014-Aug-15 03:32N 36°43' E 025°16'0 0.0
2014-Aug-15 02:32N 36°43' E 025°16'0 0.0
2014-Aug-15 01:32N 36°43' E 025°16'0 0.0
2014-Aug-15 00:32N 36°43' E 025°16'0 0.0
2014-Aug-14 23:32N 36°43' E 025°16'0 0.0
2014-Aug-14 22:32N 36°43' E 025°16'0 0.0
2014-Aug-14 21:32N 36°43' E 025°16'0 0.0
2014-Aug-14 20:32N 36°43' E 025°16'0 0.0
2014-Aug-14 19:29N 36°43' E 025°16'0 0.0
2014-Aug-14 18:32N 36°43' E 025°16'0 0.0
2014-Aug-14 17:33N 36°43' E 025°16'2 2.5
2014-Aug-14 16:33N 36°43' E 025°13'1111.1
2014-Aug-14 15:33N 36°47' E 025°00'1111.0
2014-Aug-14 14:33N 36°50' E 024°47'1111.2
2014-Aug-14 13:33N 36°52' E 024°33'11 8.1
2014-Aug-14 12:13N 36°42' E 024°28'1 0.2
2014-Aug-14 05:32N 36°43' E 024°26'9 9.3
2014-Aug-14 04:33N 36°51' E 024°30'7 0.4
2014-Aug-13 09:29N 36°57' E 024°36'10 4.2
2014-Aug-13 07:12N 36°47' E 024°35'4 2.3
2014-Aug-13 05:33N 36°44' E 024°37'1110.9
2014-Aug-13 04:33N 36°37' E 024°48'1111.1
2014-Aug-13 03:33N 36°31' E 024°60'1111.0
2014-Aug-13 02:33N 36°25' E 025°11'1110.9
2014-Aug-13 01:33N 36°19' E 025°22'1110.9
2014-Aug-13 00:33N 36°16' E 025°36'1110.7
2014-Aug-12 23:33N 36°14' E 025°49'2510.6
2014-Aug-12 21:09N 36°08' E 026°19'610.7
2014-Aug-12 20:33N 36°06' E 026°27'1110.6
2014-Aug-12 19:33N 36°04' E 026°39'1210.9
2014-Aug-12 18:28N 36°01' E 026°54'1210.5
2014-Aug-12 17:20N 35°58' E 027°08'  
Track history (hours):
 
Tides and Currents Weather Stations Pressure Air Temp Water Temp Dewpoint Dewpoint Depression Visibility Wind Speed Wind Dir Waves Ship Positions

Eko 2

Last reported at 2014-Aug-21 04:34 UTC. Time now 2014-Aug-21 06:22 UTC.
Position N 36°23' E 025°26'.

Length 89 m; draft 4.3 m.

Type: Ship (hazmat cat A). MMSI: 240827000.

Date/timePositionNaut miles runAvg speedWind from/ knotsBaromVisibWave heightAir tempDewpointWater temp
2014-Aug-21 04:34N 36°23' E 025°26'7 6.8
2014-Aug-21 03:34N 36°29' E 025°21'1111.0
2014-Aug-21 02:34N 36°39' E 025°15'1110.8
2014-Aug-21 01:34N 36°47' E 025°07'1110.8
2014-Aug-21 00:33N 36°55' E 024°57'10 9.7
2014-Aug-20 23:33N 37°04' E 024°57'1110.9
2014-Aug-20 22:34N 37°14' E 025°02'1110.8
2014-Aug-20 21:34N 37°24' E 025°08'8 8.1
2014-Aug-20 20:33N 37°32' E 025°09'0 0.0
2014-Aug-20 19:33N 37°32' E 025°09'0 0.0
2014-Aug-20 18:33N 37°32' E 025°09'0 0.0
2014-Aug-20 17:33N 37°32' E 025°09'9 8.6
2014-Aug-20 16:33N 37°28' E 024°60'3 3.4
2014-Aug-20 15:32N 37°26' E 024°56'0 0.0
2014-Aug-20 14:32N 37°26' E 024°56'0 0.0
2014-Aug-20 13:32N 37°26' E 024°56'0 0.0
2014-Aug-20 12:29N 37°26' E 024°56'0 0.0
2014-Aug-20 11:32N 37°26' E 024°56'0 0.0
2014-Aug-20 10:32N 37°26' E 024°56'0 0.0
2014-Aug-20 09:29N 37°26' E 024°56'0 0.0
2014-Aug-20 08:32N 37°26' E 024°56'0 0.0
2014-Aug-20 07:22N 37°26' E 024°56'4 5.1
2014-Aug-20 06:33N 37°24' E 025°01'9 9.1
2014-Aug-20 05:34N 37°17' E 024°53'1010.0
2014-Aug-20 04:33N 37°12' E 024°42'9 9.5
2014-Aug-20 03:33N 37°08' E 024°31'0 0.1
2014-Aug-20 00:18N 37°08' E 024°31'0 0.0
2014-Aug-19 23:24N 37°08' E 024°31'0 0.0
2014-Aug-19 19:30N 37°08' E 024°31'1 1.3
2014-Aug-19 18:33N 37°07' E 024°32'8 8.6
2014-Aug-19 17:33N 37°08' E 024°21'46 9.2
2014-Aug-19 12:33N 37°41' E 023°41'1110.7
2014-Aug-19 11:33N 37°51' E 023°36'11 0.7
2014-Aug-18 20:33N 38°02' E 023°33'2 1.0
2014-Aug-18 18:12N 38°02' E 023°36'0 0.0
2014-Aug-18 13:09N 38°02' E 023°36'0 0.0
2014-Aug-18 12:18N 38°02' E 023°36'1 1.0
2014-Aug-18 11:23N 38°02' E 023°34'2 1.0
2014-Aug-18 09:22N 38°02' E 023°32'0 0.1
2014-Aug-18 08:33N 38°02' E 023°32'5 5.4
2014-Aug-18 07:33N 37°57' E 023°35'8 7.6
2014-Aug-18 06:33N 37°50' E 023°39'1110.0
2014-Aug-18 05:29N 37°40' E 023°45'75 6.9
2014-Aug-17 18:33N 37°05' E 025°09'0 0.0
2014-Aug-17 17:33N 37°05' E 025°09'5 4.4
2014-Aug-17 16:31N 37°09' E 025°06'9 9.1
2014-Aug-17 15:33N 37°18' E 025°07'10 9.7
2014-Aug-17 14:33N 37°28' E 025°08'5 4.6
2014-Aug-17 13:32N 37°32' E 025°09'0 0.0
2014-Aug-17 12:32N 37°32' E 025°09'0 0.0
2014-Aug-17 11:32N 37°32' E 025°09'0 0.0
2014-Aug-17 10:32N 37°32' E 025°09'0 0.0
2014-Aug-17 09:32N 37°32' E 025°09'0 0.0
2014-Aug-17 08:32N 37°32' E 025°09'0 0.0
2014-Aug-17 07:32N 37°32' E 025°09'0 0.0
2014-Aug-17 06:32N 37°32' E 025°09'0 0.0
2014-Aug-17 05:32N 37°32' E 025°09'0 0.0
2014-Aug-17 04:32N 37°32' E 025°09'0 0.3
2014-Aug-17 03:33N 37°32' E 025°09'9 9.3
2014-Aug-17 02:33N 37°23' E 025°06'8 8.1
2014-Aug-17 01:33N 37°18' E 024°58'8 8.4
2014-Aug-17 00:33N 37°14' E 024°49'8 8.4
2014-Aug-16 23:33N 37°10' E 024°39'7 6.9
2014-Aug-16 22:33N 37°07' E 024°32'1 1.0
2014-Aug-16 21:30N 37°08' E 024°31'0 0.0
2014-Aug-16 20:30N 37°08' E 024°31'0 0.0
2014-Aug-16 19:06N 37°08' E 024°31'1 1.7
2014-Aug-16 18:33N 37°08' E 024°32'1511.5
2014-Aug-16 17:16N 37°00' E 024°48'811.7
2014-Aug-16 16:33N 36°55' E 024°56'1511.3
2014-Aug-16 15:14N 36°45' E 025°10'811.2
2014-Aug-16 14:33N 36°39' E 025°15'16 1.4
2014-Aug-16 03:33N 36°25' E 025°25'7 7.5
2014-Aug-16 02:33N 36°32' E 025°22'9 8.5
2014-Aug-16 01:33N 36°38' E 025°29'9 9.1
2014-Aug-16 00:33N 36°45' E 025°37'10 9.9
2014-Aug-15 23:34N 36°52' E 025°46'8 7.7
2014-Aug-15 22:33N 36°56' E 025°54'4 0.7
2014-Aug-15 17:13N 36°54' E 025°59'0 0.0
2014-Aug-15 15:31N 36°54' E 025°59'0 0.0
2014-Aug-15 13:31N 36°54' E 025°59'0 0.0
2014-Aug-15 11:25N 36°54' E 025°59'0 0.0
2014-Aug-15 09:31N 36°54' E 025°59'0 0.0
2014-Aug-15 08:28N 36°54' E 025°59'4 4.4
2014-Aug-15 07:34N 36°54' E 025°54'1111.1
2014-Aug-15 06:34N 36°49' E 025°42'1111.4
2014-Aug-15 05:33N 36°42' E 025°30'10 9.7
2014-Aug-15 04:33N 36°39' E 025°19'5 4.7
2014-Aug-15 03:32N 36°43' E 025°16'0 0.0
2014-Aug-15 02:32N 36°43' E 025°16'0 0.0
2014-Aug-15 01:32N 36°43' E 025°16'0 0.0
2014-Aug-15 00:32N 36°43' E 025°16'0 0.0
2014-Aug-14 23:32N 36°43' E 025°16'0 0.0
2014-Aug-14 22:32N 36°43' E 025°16'0 0.0
2014-Aug-14 21:32N 36°43' E 025°16'0 0.0
2014-Aug-14 20:32N 36°43' E 025°16'0 0.0
2014-Aug-14 19:29N 36°43' E 025°16'0 0.0
2014-Aug-14 18:32N 36°43' E 025°16'0 0.0
2014-Aug-14 17:33N 36°43' E 025°16'2 2.5
2014-Aug-14 16:33N 36°43' E 025°13'1111.1
2014-Aug-14 15:33N 36°47' E 025°00'1111.0
2014-Aug-14 14:33N 36°50' E 024°47'1111.2
2014-Aug-14 13:33N 36°52' E 024°33'11 8.1
2014-Aug-14 12:13N 36°42' E 024°28'1 0.2
2014-Aug-14 05:32N 36°43' E 024°26'9 9.3
2014-Aug-14 04:33N 36°51' E 024°30'7 0.4
2014-Aug-13 09:29N 36°57' E 024°36'10 4.2
2014-Aug-13 07:12N 36°47' E 024°35'4 2.3
2014-Aug-13 05:33N 36°44' E 024°37'1110.9
2014-Aug-13 04:33N 36°37' E 024°48'1111.1
2014-Aug-13 03:33N 36°31' E 024°60'1111.0
2014-Aug-13 02:33N 36°25' E 025°11'1110.9
2014-Aug-13 01:33N 36°19' E 025°22'1110.9
2014-Aug-13 00:33N 36°16' E 025°36'1110.7
2014-Aug-12 23:33N 36°14' E 025°49'2510.6
2014-Aug-12 21:09N 36°08' E 026°19'610.7
2014-Aug-12 20:33N 36°06' E 026°27'1110.6
2014-Aug-12 19:33N 36°04' E 026°39'1210.9
2014-Aug-12 18:28N 36°01' E 026°54'1210.5
2014-Aug-12 17:20N 35°58' E 027°08'  

Dump ship's entire track history